Flight Track Log - Related Links

Times and Time Zones

All times are in EDT time to prevent confusion due to time zone crossing. See the N803ER flight status page for this flight to view local times or setup timezone preferences in your user account.


Time Position Orientation Groundspeed Altitude Reporting Facility
EDT Latitude Longitude Course Direction KTS MPH feet Rate Location/Type
Fri 12:14:48 PM 41.5128 -81.6922 269° West 64 74 1,000  Level Cleveland Center
Fri 12:15:37 PM 41.5125 -81.7089 269° West 72 83 1,500 600 Climbing Cleveland Center
Fri 12:16:38 PM 41.5375 -81.7178 345° North 94 108 2,100 298 Climbing Cleveland Center
Fri 12:17:38 PM 41.5664 -81.7294 343° North 115 132 2,100 248 Level Cleveland Center
Fri 12:18:39 PM 41.5897 -81.7075 35° Northeast 121 139 2,600 492 Climbing Cleveland Center
Fri 12:19:40 PM 41.6086 -81.6744 53° Northeast 107 123 3,100 165 Climbing Cleveland Center
Fri 12:21:41 PM 41.6553 -81.6114 45° Northeast 125 144 3,100 33 Level Cleveland Center
Fri 12:22:41 PM 41.6825 -81.5783 42° Northeast 123 142 3,200 50 Climbing Cleveland Center
Fri 12:23:42 PM 41.7058 -81.5428 49° Northeast 126 145 3,200 -49 Level Cleveland Center
Fri 12:24:43 PM 41.7331 -81.5069 44° Northeast 147 169 3,100  Descending Cleveland Center
Fri 12:25:43 PM 41.7544 -81.4711 51° Northeast 127 146 3,200 50 Climbing Cleveland Center
Fri 12:26:44 PM 41.7756 -81.4322 54° Northeast 128 147 3,200  Level Cleveland Center
Fri 12:27:45 PM 41.8028 -81.4078 34° Northeast 120 138 3,200 -94 Level Cleveland Center
Fri 12:28:52 PM 41.8303 -81.3633 50° Northeast 141 162 3,000 -50 Descending Cleveland Center
Fri 12:29:46 PM 41.8492 -81.3303 53° Northeast 128 147 3,100 50 Climbing Cleveland Center
Fri 12:30:53 PM 41.8703 -81.2942 52° Northeast 130 150 3,100 -47 Level Cleveland Center
Fri 12:31:54 PM 41.8411 -81.2603 139° Southeast 136 157 3,000 -295 Descending Cleveland Center
Fri 12:32:55 PM 41.8122 -81.2322 144° Southeast 124 143 2,500 -393 Descending Cleveland Center
Fri 12:33:56 PM 41.7850 -81.2514 208° Southwest 107 123 2,200 -197 Descending Cleveland Center
Fri 12:34:57 PM 41.7681 -81.2819 233° Southwest 106 122 2,100 50 Descending Cleveland Center
Fri 12:35:57 PM 41.7472 -81.3039 218° Southwest 111 128 2,300  Climbing Cleveland Center
Fri 12:36:58 PM 41.7303 -81.3344 233° Southwest 110 127 2,100 -443 Descending Cleveland Center
Fri 12:37:59 PM 41.7133 -81.3592 227° Southwest 93 107 1,400 -496 Descending Cleveland Center
Fri 12:38:59 PM 41.6944 -81.3756 213° Southwest 71 82 1,100 155 Descending Cleveland Center
Fri 12:40:00 PM 41.6732 -81.3485 136° Southeast  Level FlightAware Approximate
Fri 12:41:13 PM 41.6544 -81.4336 136° Southeast 87 100 1,900  Level Cleveland Center
Fri 12:42:08 PM 41.6317 -81.4361 185° South 108 124 2,400 621 Climbing Cleveland Center
Fri 12:43:09 PM 41.6025 -81.4244 163° South 104 120 3,100 639 Climbing Cleveland Center
Fri 12:44:10 PM 41.5753 -81.4325 192° South 92 106 3,700 496 Climbing Cleveland Center
Fri 12:45:10 PM 41.5481 -81.4433 197° South 105 121 4,100 99 Climbing Cleveland Center
Fri 12:46:11 PM 41.5147 -81.4539 193° South 135 155 3,900 -569 Descending Cleveland Center
Fri 12:47:06 PM 41.4853 -81.4728 206° Southwest 126 145 3,000 -414 Descending Cleveland Center
Fri 12:48:07 PM 41.4708 -81.4644 157° South 121 139 3,100 98 Climbing Cleveland Center

Login

Don't have an account? Register now (free) for customized features, flight alerts, and more!